sensor_id;sensor_type;location;lat;lon;timestamp;temperature;humidity
81895;DHT22;71358;45.642;13.758;2024-01-11T00:00:37;21.40;35.80
81895;DHT22;71358;45.642;13.758;2024-01-11T00:03:22;21.40;35.80
81895;DHT22;71358;45.642;13.758;2024-01-11T00:06:06;21.40;35.80
81895;DHT22;71358;45.642;13.758;2024-01-11T00:08:51;21.40;35.70
81895;DHT22;71358;45.642;13.758;2024-01-11T00:11:35;21.40;35.60
81895;DHT22;71358;45.642;13.758;2024-01-11T00:14:20;21.40;35.60
81895;DHT22;71358;45.642;13.758;2024-01-11T00:17:04;21.40;35.60
81895;DHT22;71358;45.642;13.758;2024-01-11T00:19:49;21.40;35.60
81895;DHT22;71358;45.642;13.758;2024-01-11T00:22:34;21.40;35.60
81895;DHT22;71358;45.642;13.758;2024-01-11T00:25:19;21.40;35.50
81895;DHT22;71358;45.642;13.758;2024-01-11T00:28:03;21.40;35.50
81895;DHT22;71358;45.642;13.758;2024-01-11T00:30:48;21.40;35.50
81895;DHT22;71358;45.642;13.758;2024-01-11T00:33:32;21.40;35.50
81895;DHT22;71358;45.642;13.758;2024-01-11T00:36:18;21.40;35.50
81895;DHT22;71358;45.642;13.758;2024-01-11T00:39:04;21.30;35.40
81895;DHT22;71358;45.642;13.758;2024-01-11T00:41:48;21.30;35.40
81895;DHT22;71358;45.642;13.758;2024-01-11T00:44:33;21.30;35.40
81895;DHT22;71358;45.642;13.758;2024-01-11T00:47:17;21.30;35.50
81895;DHT22;71358;45.642;13.758;2024-01-11T00:50:02;21.30;35.40
81895;DHT22;71358;45.642;13.758;2024-01-11T00:52:46;21.30;35.50
81895;DHT22;71358;45.642;13.758;2024-01-11T00:55:31;21.30;35.70
81895;DHT22;71358;45.642;13.758;2024-01-11T00:58:15;21.30;35.70
81895;DHT22;71358;45.642;13.758;2024-01-11T01:01:00;21.30;35.80
81895;DHT22;71358;45.642;13.758;2024-01-11T01:03:44;21.30;36.20
81895;DHT22;71358;45.642;13.758;2024-01-11T01:06:29;21.30;35.90
81895;DHT22;71358;45.642;13.758;2024-01-11T01:09:14;21.30;35.90
81895;DHT22;71358;45.642;13.758;2024-01-11T01:11:59;21.30;36.00
81895;DHT22;71358;45.642;13.758;2024-01-11T01:14:43;21.20;35.90
81895;DHT22;71358;45.642;13.758;2024-01-11T01:17:27;21.30;35.90
81895;DHT22;71358;45.642;13.758;2024-01-11T01:20:12;21.20;36.00
81895;DHT22;71358;45.642;13.758;2024-01-11T01:22:57;21.20;36.00
81895;DHT22;71358;45.642;13.758;2024-01-11T01:25:41;21.20;35.90
81895;DHT22;71358;45.642;13.758;2024-01-11T01:28:25;21.20;35.90
81895;DHT22;71358;45.642;13.758;2024-01-11T01:31:10;21.20;35.90
81895;DHT22;71358;45.642;13.758;2024-01-11T01:33:54;21.20;35.90
81895;DHT22;71358;45.642;13.758;2024-01-11T01:36:39;21.20;35.70
81895;DHT22;71358;45.642;13.758;2024-01-11T01:39:24;21.20;35.80
81895;DHT22;71358;45.642;13.758;2024-01-11T01:42:08;21.20;35.80
81895;DHT22;71358;45.642;13.758;2024-01-11T01:44:53;21.20;35.90
81895;DHT22;71358;45.642;13.758;2024-01-11T01:47:39;21.20;35.90
81895;DHT22;71358;45.642;13.758;2024-01-11T01:50:24;21.20;35.90
81895;DHT22;71358;45.642;13.758;2024-01-11T01:53:10;21.10;35.80
81895;DHT22;71358;45.642;13.758;2024-01-11T01:55:54;21.10;35.80
81895;DHT22;71358;45.642;13.758;2024-01-11T01:58:39;21.10;35.80
81895;DHT22;71358;45.642;13.758;2024-01-11T02:01:25;21.10;35.80
81895;DHT22;71358;45.642;13.758;2024-01-11T02:04:11;21.10;35.70
81895;DHT22;71358;45.642;13.758;2024-01-11T02:06:56;21.10;35.40
81895;DHT22;71358;45.642;13.758;2024-01-11T02:09:43;21.10;35.30
81895;DHT22;71358;45.642;13.758;2024-01-11T02:12:29;21.10;35.20
81895;DHT22;71358;45.642;13.758;2024-01-11T02:15:14;21.10;36.00
81895;DHT22;71358;45.642;13.758;2024-01-11T02:17:59;21.10;35.30
81895;DHT22;71358;45.642;13.758;2024-01-11T02:20:43;21.00;35.20
81895;DHT22;71358;45.642;13.758;2024-01-11T02:23:28;21.10;34.90
81895;DHT22;71358;45.642;13.758;2024-01-11T02:26:14;21.00;34.90
81895;DHT22;71358;45.642;13.758;2024-01-11T02:28:58;21.00;34.80
81895;DHT22;71358;45.642;13.758;2024-01-11T02:31:43;21.00;34.90
81895;DHT22;71358;45.642;13.758;2024-01-11T02:34:28;21.00;34.90
81895;DHT22;71358;45.642;13.758;2024-01-11T02:37:13;21.00;35.00
81895;DHT22;71358;45.642;13.758;2024-01-11T02:39:57;21.00;35.10
81895;DHT22;71358;45.642;13.758;2024-01-11T02:42:42;21.00;35.00
81895;DHT22;71358;45.642;13.758;2024-01-11T02:45:26;21.00;35.00
81895;DHT22;71358;45.642;13.758;2024-01-11T02:48:11;21.00;35.00
81895;DHT22;71358;45.642;13.758;2024-01-11T02:50:57;21.00;35.00
81895;DHT22;71358;45.642;13.758;2024-01-11T02:53:41;21.00;35.10
81895;DHT22;71358;45.642;13.758;2024-01-11T02:56:26;20.90;35.00
81895;DHT22;71358;45.642;13.758;2024-01-11T02:59:10;20.90;35.00
81895;DHT22;71358;45.642;13.758;2024-01-11T03:01:55;20.90;35.10
81895;DHT22;71358;45.642;13.758;2024-01-11T03:04:39;20.90;35.20
81895;DHT22;71358;45.642;13.758;2024-01-11T03:07:24;20.90;35.10
81895;DHT22;71358;45.642;13.758;2024-01-11T03:10:09;20.90;35.10
81895;DHT22;71358;45.642;13.758;2024-01-11T03:12:53;20.90;35.20
81895;DHT22;71358;45.642;13.758;2024-01-11T03:15:38;20.90;35.10
81895;DHT22;71358;45.642;13.758;2024-01-11T03:18:22;20.90;35.10
81895;DHT22;71358;45.642;13.758;2024-01-11T03:21:07;20.90;35.10
81895;DHT22;71358;45.642;13.758;2024-01-11T03:23:52;20.90;35.10
81895;DHT22;71358;45.642;13.758;2024-01-11T03:26:36;20.90;35.10
81895;DHT22;71358;45.642;13.758;2024-01-11T03:29:21;20.80;35.00
81895;DHT22;71358;45.642;13.758;2024-01-11T03:32:05;20.80;35.00
81895;DHT22;71358;45.642;13.758;2024-01-11T03:34:50;20.80;35.10
81895;DHT22;71358;45.642;13.758;2024-01-11T03:37:35;20.80;35.00
81895;DHT22;71358;45.642;13.758;2024-01-11T03:40:19;20.80;35.00
81895;DHT22;71358;45.642;13.758;2024-01-11T03:43:04;20.80;35.00
81895;DHT22;71358;45.642;13.758;2024-01-11T03:45:49;20.80;34.90
81895;DHT22;71358;45.642;13.758;2024-01-11T03:48:33;20.80;35.00
81895;DHT22;71358;45.642;13.758;2024-01-11T03:51:20;20.80;35.00
81895;DHT22;71358;45.642;13.758;2024-01-11T03:54:04;20.80;34.80
81895;DHT22;71358;45.642;13.758;2024-01-11T03:56:49;20.80;34.80
81895;DHT22;71358;45.642;13.758;2024-01-11T03:59:33;20.80;34.60
81895;DHT22;71358;45.642;13.758;2024-01-11T04:02:19;20.80;34.60
81895;DHT22;71358;45.642;13.758;2024-01-11T04:05:03;20.70;34.50
81895;DHT22;71358;45.642;13.758;2024-01-11T04:07:48;20.70;34.40
81895;DHT22;71358;45.642;13.758;2024-01-11T04:10:33;20.70;34.30
81895;DHT22;71358;45.642;13.758;2024-01-11T04:13:17;20.70;34.30
81895;DHT22;71358;45.642;13.758;2024-01-11T04:16:05;20.70;34.20
81895;DHT22;71358;45.642;13.758;2024-01-11T04:18:50;20.70;34.20
81895;DHT22;71358;45.642;13.758;2024-01-11T04:21:35;20.70;34.20
81895;DHT22;71358;45.642;13.758;2024-01-11T04:24:22;20.70;34.10
81895;DHT22;71358;45.642;13.758;2024-01-11T04:27:07;20.70;34.10
81895;DHT22;71358;45.642;13.758;2024-01-11T04:29:51;20.60;34.10
81895;DHT22;71358;45.642;13.758;2024-01-11T04:32:36;20.60;34.00
81895;DHT22;71358;45.642;13.758;2024-01-11T04:35:20;20.60;34.10
81895;DHT22;71358;45.642;13.758;2024-01-11T04:38:05;20.60;34.20
81895;DHT22;71358;45.642;13.758;2024-01-11T04:40:49;20.60;34.10
81895;DHT22;71358;45.642;13.758;2024-01-11T04:43:44;20.60;34.00
81895;DHT22;71358;45.642;13.758;2024-01-11T04:46:29;20.60;34.10
81895;DHT22;71358;45.642;13.758;2024-01-11T04:49:14;20.60;34.10
81895;DHT22;71358;45.642;13.758;2024-01-11T04:51:58;20.60;34.00
81895;DHT22;71358;45.642;13.758;2024-01-11T04:54:43;20.60;33.90
81895;DHT22;71358;45.642;13.758;2024-01-11T04:57:27;20.60;33.90
81895;DHT22;71358;45.642;13.758;2024-01-11T05:00:12;20.60;34.00
81895;DHT22;71358;45.642;13.758;2024-01-11T05:02:56;20.50;34.00
81895;DHT22;71358;45.642;13.758;2024-01-11T05:05:41;20.50;33.90
81895;DHT22;71358;45.642;13.758;2024-01-11T05:08:26;20.50;33.80
81895;DHT22;71358;45.642;13.758;2024-01-11T05:11:22;20.50;33.80
81895;DHT22;71358;45.642;13.758;2024-01-11T05:14:08;20.50;33.70
81895;DHT22;71358;45.642;13.758;2024-01-11T05:16:53;20.50;33.70
81895;DHT22;71358;45.642;13.758;2024-01-11T05:19:37;20.50;33.60
81895;DHT22;71358;45.642;13.758;2024-01-11T05:22:22;20.50;33.60
81895;DHT22;71358;45.642;13.758;2024-01-11T05:25:06;20.50;33.60
81895;DHT22;71358;45.642;13.758;2024-01-11T05:27:51;20.40;33.40
81895;DHT22;71358;45.642;13.758;2024-01-11T05:30:36;20.40;33.40
81895;DHT22;71358;45.642;13.758;2024-01-11T05:33:20;20.40;33.50
81895;DHT22;71358;45.642;13.758;2024-01-11T05:36:05;20.50;33.50
81895;DHT22;71358;45.642;13.758;2024-01-11T05:38:50;20.40;33.50
81895;DHT22;71358;45.642;13.758;2024-01-11T05:41:35;20.40;33.50
81895;DHT22;71358;45.642;13.758;2024-01-11T05:44:19;20.40;33.40
81895;DHT22;71358;45.642;13.758;2024-01-11T05:47:04;20.40;33.50
81895;DHT22;71358;45.642;13.758;2024-01-11T05:49:49;20.40;33.50
81895;DHT22;71358;45.642;13.758;2024-01-11T05:52:34;20.40;33.50
81895;DHT22;71358;45.642;13.758;2024-01-11T05:55:18;20.40;33.60
81895;DHT22;71358;45.642;13.758;2024-01-11T05:58:03;20.40;33.70
81895;DHT22;71358;45.642;13.758;2024-01-11T06:00:47;20.40;33.60
81895;DHT22;71358;45.642;13.758;2024-01-11T06:03:32;20.40;33.60
81895;DHT22;71358;45.642;13.758;2024-01-11T06:06:18;20.40;33.60
81895;DHT22;71358;45.642;13.758;2024-01-11T06:09:03;20.30;33.60
81895;DHT22;71358;45.642;13.758;2024-01-11T06:11:48;20.30;33.60
81895;DHT22;71358;45.642;13.758;2024-01-11T06:14:33;20.30;33.60
81895;DHT22;71358;45.642;13.758;2024-01-11T06:17:18;20.30;33.60
81895;DHT22;71358;45.642;13.758;2024-01-11T06:20:03;20.30;33.60
81895;DHT22;71358;45.642;13.758;2024-01-11T06:22:48;20.30;33.60
81895;DHT22;71358;45.642;13.758;2024-01-11T06:25:32;20.30;33.70
81895;DHT22;71358;45.642;13.758;2024-01-11T06:28:17;20.30;33.70
81895;DHT22;71358;45.642;13.758;2024-01-11T06:31:02;20.30;33.60
81895;DHT22;71358;45.642;13.758;2024-01-11T06:33:47;20.30;33.60
81895;DHT22;71358;45.642;13.758;2024-01-11T06:36:32;20.30;33.70
81895;DHT22;71358;45.642;13.758;2024-01-11T06:39:16;20.30;33.80
81895;DHT22;71358;45.642;13.758;2024-01-11T06:42:01;20.30;33.90
81895;DHT22;71358;45.642;13.758;2024-01-11T06:44:45;20.30;33.90
81895;DHT22;71358;45.642;13.758;2024-01-11T06:47:30;20.30;33.90
81895;DHT22;71358;45.642;13.758;2024-01-11T06:50:15;20.30;34.00
81895;DHT22;71358;45.642;13.758;2024-01-11T06:53:00;20.30;34.20
81895;DHT22;71358;45.642;13.758;2024-01-11T06:55:44;20.40;34.10
81895;DHT22;71358;45.642;13.758;2024-01-11T06:58:29;20.40;34.10
81895;DHT22;71358;45.642;13.758;2024-01-11T07:01:13;20.40;34.00
81895;DHT22;71358;45.642;13.758;2024-01-11T07:03:58;20.40;34.00
81895;DHT22;71358;45.642;13.758;2024-01-11T07:06:42;20.40;33.90
81895;DHT22;71358;45.642;13.758;2024-01-11T07:09:27;20.50;33.90
81895;DHT22;71358;45.642;13.758;2024-01-11T07:12:12;20.50;33.90
81895;DHT22;71358;45.642;13.758;2024-01-11T07:14:56;20.40;33.80
81895;DHT22;71358;45.642;13.758;2024-01-11T07:17:41;20.50;34.30
81895;DHT22;71358;45.642;13.758;2024-01-11T07:20:25;20.50;34.10
81895;DHT22;71358;45.642;13.758;2024-01-11T07:23:10;20.50;34.00
81895;DHT22;71358;45.642;13.758;2024-01-11T07:25:55;20.50;34.00
81895;DHT22;71358;45.642;13.758;2024-01-11T07:28:39;20.50;34.10
81895;DHT22;71358;45.642;13.758;2024-01-11T07:31:24;20.50;34.20
81895;DHT22;71358;45.642;13.758;2024-01-11T07:34:08;20.60;34.40
81895;DHT22;71358;45.642;13.758;2024-01-11T07:36:53;20.60;34.40
81895;DHT22;71358;45.642;13.758;2024-01-11T07:39:38;20.60;34.40
81895;DHT22;71358;45.642;13.758;2024-01-11T07:42:22;20.60;34.50
81895;DHT22;71358;45.642;13.758;2024-01-11T07:45:07;20.60;34.70
81895;DHT22;71358;45.642;13.758;2024-01-11T07:47:54;20.60;34.90
81895;DHT22;71358;45.642;13.758;2024-01-11T07:50:38;20.60;34.90
81895;DHT22;71358;45.642;13.758;2024-01-11T07:53:23;20.70;35.00
81895;DHT22;71358;45.642;13.758;2024-01-11T07:56:08;20.70;35.10
81895;DHT22;71358;45.642;13.758;2024-01-11T07:58:52;20.70;35.20
81895;DHT22;71358;45.642;13.758;2024-01-11T08:01:37;20.70;35.90
81895;DHT22;71358;45.642;13.758;2024-01-11T08:04:21;20.70;35.30
81895;DHT22;71358;45.642;13.758;2024-01-11T08:07:06;20.70;35.30
81895;DHT22;71358;45.642;13.758;2024-01-11T08:09:51;20.80;35.40
81895;DHT22;71358;45.642;13.758;2024-01-11T08:12:36;20.80;35.40
81895;DHT22;71358;45.642;13.758;2024-01-11T08:15:21;20.80;35.40
81895;DHT22;71358;45.642;13.758;2024-01-11T08:18:06;20.80;35.50
81895;DHT22;71358;45.642;13.758;2024-01-11T08:20:50;20.80;35.60
81895;DHT22;71358;45.642;13.758;2024-01-11T08:23:35;20.80;35.70
81895;DHT22;71358;45.642;13.758;2024-01-11T08:26:19;20.80;35.70
81895;DHT22;71358;45.642;13.758;2024-01-11T08:29:05;20.80;35.80
81895;DHT22;71358;45.642;13.758;2024-01-11T08:31:50;20.80;35.90
81895;DHT22;71358;45.642;13.758;2024-01-11T08:34:34;20.80;36.00
81895;DHT22;71358;45.642;13.758;2024-01-11T08:37:19;20.80;36.00
81895;DHT22;71358;45.642;13.758;2024-01-11T08:40:04;20.90;36.10
81895;DHT22;71358;45.642;13.758;2024-01-11T08:42:50;20.90;36.10
81895;DHT22;71358;45.642;13.758;2024-01-11T08:45:35;20.90;35.90
81895;DHT22;71358;45.642;13.758;2024-01-11T08:48:19;20.90;35.90
81895;DHT22;71358;45.642;13.758;2024-01-11T08:51:04;20.90;36.10
81895;DHT22;71358;45.642;13.758;2024-01-11T08:53:48;20.90;36.10
81895;DHT22;71358;45.642;13.758;2024-01-11T08:56:34;20.90;36.10
81895;DHT22;71358;45.642;13.758;2024-01-11T08:59:18;20.90;36.10
81895;DHT22;71358;45.642;13.758;2024-01-11T09:02:03;20.90;35.90
81895;DHT22;71358;45.642;13.758;2024-01-11T09:04:47;20.90;36.10
81895;DHT22;71358;45.642;13.758;2024-01-11T09:07:32;20.90;36.20
81895;DHT22;71358;45.642;13.758;2024-01-11T09:10:16;20.90;36.10
81895;DHT22;71358;45.642;13.758;2024-01-11T09:13:01;20.90;36.10
81895;DHT22;71358;45.642;13.758;2024-01-11T09:15:46;20.90;36.20
81895;DHT22;71358;45.642;13.758;2024-01-11T09:18:30;20.90;36.40
81895;DHT22;71358;45.642;13.758;2024-01-11T09:21:15;20.90;36.50
81895;DHT22;71358;45.642;13.758;2024-01-11T09:24:00;20.90;36.50
81895;DHT22;71358;45.642;13.758;2024-01-11T09:26:44;20.90;36.20
81895;DHT22;71358;45.642;13.758;2024-01-11T09:29:29;20.90;35.80
81895;DHT22;71358;45.642;13.758;2024-01-11T09:32:14;20.90;35.40
81895;DHT22;71358;45.642;13.758;2024-01-11T09:34:58;20.90;35.20
81895;DHT22;71358;45.642;13.758;2024-01-11T09:37:43;20.90;35.40
81895;DHT22;71358;45.642;13.758;2024-01-11T09:40:30;20.90;35.60
81895;DHT22;71358;45.642;13.758;2024-01-11T09:43:15;20.90;35.80
81895;DHT22;71358;45.642;13.758;2024-01-11T09:46:05;20.90;35.90
81895;DHT22;71358;45.642;13.758;2024-01-11T09:48:50;20.90;35.90
81895;DHT22;71358;45.642;13.758;2024-01-11T09:51:38;20.90;35.90
81895;DHT22;71358;45.642;13.758;2024-01-11T09:54:25;20.90;35.90
81895;DHT22;71358;45.642;13.758;2024-01-11T09:57:10;20.90;35.70
81895;DHT22;71358;45.642;13.758;2024-01-11T09:59:56;20.90;34.60
81895;DHT22;71358;45.642;13.758;2024-01-11T10:02:40;20.80;33.00
81895;DHT22;71358;45.642;13.758;2024-01-11T10:05:25;20.80;31.70
81895;DHT22;71358;45.642;13.758;2024-01-11T10:08:11;20.80;30.90
81895;DHT22;71358;45.642;13.758;2024-01-11T10:10:56;20.70;30.50
81895;DHT22;71358;45.642;13.758;2024-01-11T10:13:40;20.70;30.30
81895;DHT22;71358;45.642;13.758;2024-01-11T10:16:25;20.70;30.90
81895;DHT22;71358;45.642;13.758;2024-01-11T10:19:10;20.60;29.60
81895;DHT22;71358;45.642;13.758;2024-01-11T10:21:57;20.50;26.60
81895;DHT22;71358;45.642;13.758;2024-01-11T10:24:45;20.30;24.80
81895;DHT22;71358;45.642;13.758;2024-01-11T10:27:29;20.10;23.20
81895;DHT22;71358;45.642;13.758;2024-01-11T10:30:15;19.80;22.70
81895;DHT22;71358;45.642;13.758;2024-01-11T10:33:00;19.70;23.10
81895;DHT22;71358;45.642;13.758;2024-01-11T10:35:44;19.70;24.90
81895;DHT22;71358;45.642;13.758;2024-01-11T10:38:36;19.70;26.10
81895;DHT22;71358;45.642;13.758;2024-01-11T10:41:21;19.80;26.90
81895;DHT22;71358;45.642;13.758;2024-01-11T10:44:15;19.90;27.40
81895;DHT22;71358;45.642;13.758;2024-01-11T10:47:03;20.00;28.00
81895;DHT22;71358;45.642;13.758;2024-01-11T10:49:50;20.10;28.60
81895;DHT22;71358;45.642;13.758;2024-01-11T10:52:42;20.20;29.40
81895;DHT22;71358;45.642;13.758;2024-01-11T10:55:27;20.20;30.10
81895;DHT22;71358;45.642;13.758;2024-01-11T10:58:13;20.20;31.00
81895;DHT22;71358;45.642;13.758;2024-01-11T11:01:00;20.30;32.00
81895;DHT22;71358;45.642;13.758;2024-01-11T11:03:46;20.30;32.60
81895;DHT22;71358;45.642;13.758;2024-01-11T11:06:32;20.40;33.10
81895;DHT22;71358;45.642;13.758;2024-01-11T11:09:17;20.40;33.60
81895;DHT22;71358;45.642;13.758;2024-01-11T11:12:04;20.40;34.20
81895;DHT22;71358;45.642;13.758;2024-01-11T11:14:50;20.40;34.60
81895;DHT22;71358;45.642;13.758;2024-01-11T11:17:36;20.40;35.10
81895;DHT22;71358;45.642;13.758;2024-01-11T11:20:20;20.50;35.80
81895;DHT22;71358;45.642;13.758;2024-01-11T11:23:06;20.50;36.30
81895;DHT22;71358;45.642;13.758;2024-01-11T11:25:54;20.50;36.80
81895;DHT22;71358;45.642;13.758;2024-01-11T11:28:39;20.50;37.00
81895;DHT22;71358;45.642;13.758;2024-01-11T11:31:37;20.50;37.20
81895;DHT22;71358;45.642;13.758;2024-01-11T11:34:41;20.50;37.80
81895;DHT22;71358;45.642;13.758;2024-01-11T11:37:29;20.60;38.00
81895;DHT22;71358;45.642;13.758;2024-01-11T11:40:14;20.60;37.80
81895;DHT22;71358;45.642;13.758;2024-01-11T11:43:01;20.60;38.00
81895;DHT22;71358;45.642;13.758;2024-01-11T11:45:47;20.60;38.10
81895;DHT22;71358;45.642;13.758;2024-01-11T11:51:18;20.60;37.90
81895;DHT22;71358;45.642;13.758;2024-01-11T11:54:03;20.60;38.00
81895;DHT22;71358;45.642;13.758;2024-01-11T11:56:48;20.60;37.90
81895;DHT22;71358;45.642;13.758;2024-01-11T11:59:33;20.60;37.90
81895;DHT22;71358;45.642;13.758;2024-01-11T12:02:21;20.60;37.90
81895;DHT22;71358;45.642;13.758;2024-01-11T12:05:07;20.60;37.80
81895;DHT22;71358;45.642;13.758;2024-01-11T12:07:51;20.60;37.80
81895;DHT22;71358;45.642;13.758;2024-01-11T12:10:37;20.60;37.80
81895;DHT22;71358;45.642;13.758;2024-01-11T12:13:24;20.60;37.90
81895;DHT22;71358;45.642;13.758;2024-01-11T12:16:09;20.60;37.80
81895;DHT22;71358;45.642;13.758;2024-01-11T12:18:53;20.60;37.60
81895;DHT22;71358;45.642;13.758;2024-01-11T12:21:38;20.60;37.50
81895;DHT22;71358;45.642;13.758;2024-01-11T12:24:23;20.60;37.50
81895;DHT22;71358;45.642;13.758;2024-01-11T12:27:08;20.60;37.30
81895;DHT22;71358;45.642;13.758;2024-01-11T12:29:52;20.60;37.20
81895;DHT22;71358;45.642;13.758;2024-01-11T12:32:37;20.60;37.10
81895;DHT22;71358;45.642;13.758;2024-01-11T12:35:22;20.60;36.90
81895;DHT22;71358;45.642;13.758;2024-01-11T12:38:07;20.60;36.90
81895;DHT22;71358;45.642;13.758;2024-01-11T12:40:53;20.60;36.80
81895;DHT22;71358;45.642;13.758;2024-01-11T12:43:38;20.60;36.70
81895;DHT22;71358;45.642;13.758;2024-01-11T12:46:22;20.60;36.60
81895;DHT22;71358;45.642;13.758;2024-01-11T12:49:10;20.60;36.50
81895;DHT22;71358;45.642;13.758;2024-01-11T12:51:55;20.60;36.40
81895;DHT22;71358;45.642;13.758;2024-01-11T12:54:39;20.60;36.30
81895;DHT22;71358;45.642;13.758;2024-01-11T12:57:25;20.60;36.30
81895;DHT22;71358;45.642;13.758;2024-01-11T13:00:11;20.60;36.20
81895;DHT22;71358;45.642;13.758;2024-01-11T13:02:56;20.60;36.20
81895;DHT22;71358;45.642;13.758;2024-01-11T13:05:41;20.60;36.20
81895;DHT22;71358;45.642;13.758;2024-01-11T13:08:25;20.60;36.20
81895;DHT22;71358;45.642;13.758;2024-01-11T13:11:11;20.60;36.30
81895;DHT22;71358;45.642;13.758;2024-01-11T13:13:58;20.60;36.40
81895;DHT22;71358;45.642;13.758;2024-01-11T13:16:45;20.60;36.30
81895;DHT22;71358;45.642;13.758;2024-01-11T13:19:30;20.60;36.20
81895;DHT22;71358;45.642;13.758;2024-01-11T13:22:15;20.60;36.00
81895;DHT22;71358;45.642;13.758;2024-01-11T13:25:00;20.60;36.10
81895;DHT22;71358;45.642;13.758;2024-01-11T13:27:44;20.60;36.10
81895;DHT22;71358;45.642;13.758;2024-01-11T13:30:28;20.60;36.00
81895;DHT22;71358;45.642;13.758;2024-01-11T13:33:14;20.50;35.50
81895;DHT22;71358;45.642;13.758;2024-01-11T13:36:01;20.50;35.30
81895;DHT22;71358;45.642;13.758;2024-01-11T13:38:45;20.50;35.20
81895;DHT22;71358;45.642;13.758;2024-01-11T13:41:30;20.50;35.20
81895;DHT22;71358;45.642;13.758;2024-01-11T13:44:15;20.50;35.30
81895;DHT22;71358;45.642;13.758;2024-01-11T13:47:00;20.50;35.30
81895;DHT22;71358;45.642;13.758;2024-01-11T13:49:44;20.50;35.40
81895;DHT22;71358;45.642;13.758;2024-01-11T13:52:30;20.50;35.50
81895;DHT22;71358;45.642;13.758;2024-01-11T13:55:14;20.50;35.70
81895;DHT22;71358;45.642;13.758;2024-01-11T13:57:59;20.50;36.00
81895;DHT22;71358;45.642;13.758;2024-01-11T14:00:44;20.50;36.20
81895;DHT22;71358;45.642;13.758;2024-01-11T14:03:28;20.50;36.50
81895;DHT22;71358;45.642;13.758;2024-01-11T14:06:13;20.50;36.70
81895;DHT22;71358;45.642;13.758;2024-01-11T14:08:58;20.60;36.90
81895;DHT22;71358;45.642;13.758;2024-01-11T14:11:43;20.50;37.10
81895;DHT22;71358;45.642;13.758;2024-01-11T14:14:27;20.50;37.20
81895;DHT22;71358;45.642;13.758;2024-01-11T14:17:12;20.50;37.30
81895;DHT22;71358;45.642;13.758;2024-01-11T14:19:57;20.50;37.30
81895;DHT22;71358;45.642;13.758;2024-01-11T14:22:42;20.50;37.50
81895;DHT22;71358;45.642;13.758;2024-01-11T14:25:31;20.50;37.50
81895;DHT22;71358;45.642;13.758;2024-01-11T14:28:16;20.50;37.50
81895;DHT22;71358;45.642;13.758;2024-01-11T14:31:01;20.50;37.60
81895;DHT22;71358;45.642;13.758;2024-01-11T14:33:46;20.50;37.60
81895;DHT22;71358;45.642;13.758;2024-01-11T14:36:30;20.50;37.60
81895;DHT22;71358;45.642;13.758;2024-01-11T14:39:14;20.50;37.60
81895;DHT22;71358;45.642;13.758;2024-01-11T14:41:59;20.50;37.60
81895;DHT22;71358;45.642;13.758;2024-01-11T14:44:44;20.50;37.60
81895;DHT22;71358;45.642;13.758;2024-01-11T14:47:28;20.50;37.60
81895;DHT22;71358;45.642;13.758;2024-01-11T14:50:13;20.50;37.60
81895;DHT22;71358;45.642;13.758;2024-01-11T14:52:57;20.50;37.60
81895;DHT22;71358;45.642;13.758;2024-01-11T14:55:42;20.50;37.70
81895;DHT22;71358;45.642;13.758;2024-01-11T14:58:28;20.50;37.70
81895;DHT22;71358;45.642;13.758;2024-01-11T15:01:12;20.40;37.70
81895;DHT22;71358;45.642;13.758;2024-01-11T15:03:57;20.40;37.70
81895;DHT22;71358;45.642;13.758;2024-01-11T15:06:41;20.40;37.70
81895;DHT22;71358;45.642;13.758;2024-01-11T15:09:26;20.40;37.70
81895;DHT22;71358;45.642;13.758;2024-01-11T15:12:10;20.50;37.90
81895;DHT22;71358;45.642;13.758;2024-01-11T15:14:55;20.40;37.80
81895;DHT22;71358;45.642;13.758;2024-01-11T15:17:40;20.40;37.70
81895;DHT22;71358;45.642;13.758;2024-01-11T15:20:24;20.40;37.70
81895;DHT22;71358;45.642;13.758;2024-01-11T15:23:09;20.40;37.80
81895;DHT22;71358;45.642;13.758;2024-01-11T15:25:54;20.40;37.70
81895;DHT22;71358;45.642;13.758;2024-01-11T15:28:38;20.40;37.70
81895;DHT22;71358;45.642;13.758;2024-01-11T15:31:23;20.40;37.60
81895;DHT22;71358;45.642;13.758;2024-01-11T15:34:09;20.40;37.70
81895;DHT22;71358;45.642;13.758;2024-01-11T15:36:54;20.40;38.30
81895;DHT22;71358;45.642;13.758;2024-01-11T15:39:39;20.40;37.60
81895;DHT22;71358;45.642;13.758;2024-01-11T15:42:23;20.40;37.70
81895;DHT22;71358;45.642;13.758;2024-01-11T15:45:08;20.40;37.60
81895;DHT22;71358;45.642;13.758;2024-01-11T15:47:52;20.40;37.60
81895;DHT22;71358;45.642;13.758;2024-01-11T15:50:37;20.40;37.60
81895;DHT22;71358;45.642;13.758;2024-01-11T15:53:22;20.40;37.60
81895;DHT22;71358;45.642;13.758;2024-01-11T15:56:06;20.40;37.60
81895;DHT22;71358;45.642;13.758;2024-01-11T15:58:51;20.40;37.70
81895;DHT22;71358;45.642;13.758;2024-01-11T16:01:36;20.40;37.80
81895;DHT22;71358;45.642;13.758;2024-01-11T16:04:20;20.40;37.90
81895;DHT22;71358;45.642;13.758;2024-01-11T16:07:06;20.40;37.90
81895;DHT22;71358;45.642;13.758;2024-01-11T16:09:51;20.40;38.00
81895;DHT22;71358;45.642;13.758;2024-01-11T16:12:36;20.40;38.00
81895;DHT22;71358;45.642;13.758;2024-01-11T16:15:21;20.40;38.20
81895;DHT22;71358;45.642;13.758;2024-01-11T16:18:05;20.40;38.40
81895;DHT22;71358;45.642;13.758;2024-01-11T16:20:50;20.40;38.50
81895;DHT22;71358;45.642;13.758;2024-01-11T16:23:35;20.40;38.70
81895;DHT22;71358;45.642;13.758;2024-01-11T16:26:19;20.40;39.00
81895;DHT22;71358;45.642;13.758;2024-01-11T16:29:04;20.40;39.20
81895;DHT22;71358;45.642;13.758;2024-01-11T16:31:50;20.40;39.40
81895;DHT22;71358;45.642;13.758;2024-01-11T16:34:38;20.40;39.50
81895;DHT22;71358;45.642;13.758;2024-01-11T16:37:23;20.40;39.60
81895;DHT22;71358;45.642;13.758;2024-01-11T16:40:08;20.40;39.70
81895;DHT22;71358;45.642;13.758;2024-01-11T16:42:56;20.40;39.80
81895;DHT22;71358;45.642;13.758;2024-01-11T16:45:40;20.40;39.90
81895;DHT22;71358;45.642;13.758;2024-01-11T16:48:25;20.40;39.90
81895;DHT22;71358;45.642;13.758;2024-01-11T16:51:11;20.40;39.90
81895;DHT22;71358;45.642;13.758;2024-01-11T16:53:56;20.30;39.80
81895;DHT22;71358;45.642;13.758;2024-01-11T16:56:40;20.40;39.90
81895;DHT22;71358;45.642;13.758;2024-01-11T16:59:25;20.40;39.70
81895;DHT22;71358;45.642;13.758;2024-01-11T17:02:09;20.40;39.70
81895;DHT22;71358;45.642;13.758;2024-01-11T17:04:54;20.40;39.70
81895;DHT22;71358;45.642;13.758;2024-01-11T17:07:39;20.40;39.60